createdAt,value
2018-10-07T00:01:14.011Z,100525.47
2018-10-07T00:03:43.226Z,100529.61
2018-10-07T00:06:11.433Z,100538.93
2018-10-07T00:08:39.611Z,100541.43
2018-10-07T00:11:09.339Z,100554.58
2018-10-07T00:13:37.597Z,100557.75
2018-10-07T00:16:05.847Z,100565.23
2018-10-07T00:18:34.144Z,100576.39
2018-10-07T00:21:02.464Z,100586.72
2018-10-07T00:23:30.703Z,100585.23
2018-10-07T00:25:59.061Z,100591.93
2018-10-07T00:28:27.276Z,100598.23
2018-10-07T00:30:55.580Z,100609.40
2018-10-07T00:33:24.095Z,100605.24
2018-10-07T00:35:52.327Z,100602.92
2018-10-07T00:38:20.646Z,100605.09
2018-10-07T00:40:48.987Z,100623.42
2018-10-07T00:43:17.275Z,100627.56
2018-10-07T00:45:45.684Z,100634.89
2018-10-07T00:48:14.095Z,100644.22
2018-10-07T00:50:42.538Z,100656.54
2018-10-07T00:53:10.935Z,100665.70
2018-10-07T00:55:39.239Z,100668.53
2018-10-07T00:58:07.599Z,100663.87
2018-10-07T01:00:35.831Z,100671.37
2018-10-07T01:03:04.266Z,100681.88
2018-10-07T01:05:32.523Z,100693.86
2018-10-07T01:08:01.333Z,100707.19
2018-10-07T01:10:29.632Z,100717.17
2018-10-07T01:12:58.007Z,100737.31
2018-10-07T01:15:26.320Z,100741.78
2018-10-07T01:17:54.576Z,100743.78
2018-10-07T01:20:22.885Z,100734.44
2018-10-07T01:22:51.196Z,100729.44
2018-10-07T01:25:19.647Z,100721.95
2018-10-07T01:27:48.734Z,100721.23
2018-10-07T01:30:21.582Z,100714.09
2018-10-07T01:32:50.824Z,100723.28
2018-10-07T01:35:19.155Z,100713.12
2018-10-07T01:37:47.797Z,100720.12
2018-10-07T01:40:16.152Z,100704.64
2018-10-07T01:42:44.693Z,100708.13
2018-10-07T01:45:13.007Z,100711.10
2018-10-07T01:47:41.535Z,100703.64
2018-10-07T01:50:09.876Z,100704.14
2018-10-07T01:52:38.067Z,100709.13
2018-10-07T01:55:06.323Z,100709.13
2018-10-07T01:57:34.461Z,100710.09
2018-10-07T02:00:02.715Z,100717.41
2018-10-07T02:02:30.906Z,100717.22
2018-10-07T02:04:59.248Z,100721.37
2018-10-07T02:07:27.463Z,100713.05
2018-10-07T02:09:55.619Z,100714.05
2018-10-07T02:12:23.819Z,100720.52
2018-10-07T02:14:52.043Z,100711.70
2018-10-07T02:17:20.220Z,100691.58
2018-10-07T02:19:48.396Z,100673.92
2018-10-07T02:22:16.606Z,100679.09
2018-10-07T02:24:44.747Z,100674.08
2018-10-07T02:27:12.906Z,100670.08
2018-10-07T02:29:41.117Z,100669.44
2018-10-07T02:32:09.440Z,100660.77
2018-10-07T02:34:37.599Z,100650.45
2018-10-07T02:37:06.010Z,100648.79
2018-10-07T02:39:34.200Z,100654.11
2018-10-07T02:42:03.686Z,100666.25
2018-10-07T02:44:31.894Z,100687.69
2018-10-07T02:47:00.295Z,100695.99
2018-10-07T02:49:28.544Z,100686.19
2018-10-07T02:51:56.978Z,100689.66
2018-10-07T02:54:25.635Z,100698.14
2018-10-07T02:56:53.850Z,100689.81
2018-10-07T02:59:22.038Z,100695.48
2018-10-07T03:01:50.399Z,100702.66
2018-10-07T03:04:18.613Z,100702.66
2018-10-07T03:06:46.799Z,100702.16
2018-10-07T03:09:14.984Z,100711.97
2018-10-07T03:11:43.157Z,100706.96
2018-10-07T03:14:11.356Z,100709.62
2018-10-07T03:16:39.551Z,100711.45
2018-10-07T03:19:07.758Z,100719.94
2018-10-07T03:21:35.938Z,100717.92
2018-10-07T03:24:04.204Z,100715.76
2018-10-07T03:26:32.412Z,100713.75
2018-10-07T03:29:00.640Z,100721.55
2018-10-07T03:31:28.789Z,100721.21
2018-10-07T03:33:56.984Z,100724.89
2018-10-07T03:36:25.243Z,100743.19
2018-10-07T03:38:53.509Z,100746.68
2018-10-07T03:41:21.762Z,100747.86
2018-10-07T03:43:49.968Z,100753.18
2018-10-07T03:46:18.138Z,100755.01
2018-10-07T03:48:46.383Z,100759.19
2018-10-07T03:51:14.603Z,100759.52
2018-10-07T03:53:42.835Z,100766.52
2018-10-07T03:56:11.007Z,100779.52
2018-10-07T03:58:39.155Z,100782.19
2018-10-07T04:01:07.392Z,100794.16
2018-10-07T04:03:35.662Z,100798.99
2018-10-07T04:06:03.843Z,100802.65
2018-10-07T04:08:32.032Z,100806.80
2018-10-07T04:11:00.186Z,100818.44
2018-10-07T04:13:28.432Z,100824.25
2018-10-07T04:15:56.639Z,100824.75
2018-10-07T04:18:24.822Z,100828.89
2018-10-07T04:20:53.006Z,100833.04
2018-10-07T04:23:21.192Z,100832.20
2018-10-07T04:25:49.362Z,100831.06
2018-10-07T04:28:17.547Z,100828.06
2018-10-07T04:30:45.724Z,100836.73
2018-10-07T04:33:13.875Z,100840.72
2018-10-07T04:35:42.111Z,100850.03
2018-10-07T04:38:10.351Z,100854.52
2018-10-07T04:40:38.548Z,100863.50
2018-10-07T04:43:06.699Z,100861.33
2018-10-07T04:45:34.865Z,100865.48
2018-10-07T04:48:03.011Z,100865.63
2018-10-07T04:50:31.199Z,100869.62
2018-10-07T04:52:59.426Z,100875.28
2018-10-07T04:55:27.607Z,100882.09
2018-10-07T04:57:55.752Z,100884.76
2018-10-07T05:00:23.994Z,100887.76
2018-10-07T05:02:52.156Z,100905.20
2018-10-07T05:05:20.364Z,100911.52
2018-10-07T05:07:48.537Z,100927.48
2018-10-07T05:10:52.571Z,100932.62
2018-10-07T05:13:23.843Z,100942.38
2018-10-07T05:15:54.752Z,100951.70
2018-10-07T05:18:23.230Z,100955.84
2018-10-07T05:20:51.555Z,100956.48
2018-10-07T05:23:19.740Z,100958.98
2018-10-07T05:25:47.966Z,100962.13
2018-10-07T05:28:16.443Z,100964.95
2018-10-07T05:30:44.700Z,100963.13
2018-10-07T05:33:12.992Z,100969.58
2018-10-07T05:35:41.183Z,100969.37
2018-10-07T05:38:09.395Z,100972.19
2018-10-07T05:40:37.625Z,100978.98
2018-10-07T05:43:05.807Z,100991.75
2018-10-07T05:45:34.093Z,100997.06
2018-10-07T05:48:02.309Z,100999.91
2018-10-07T05:50:30.543Z,101008.38
2018-10-07T05:52:58.759Z,101019.17
2018-10-07T05:55:27.054Z,101025.33
2018-10-07T05:57:57.851Z,101023.66
2018-10-07T06:00:27.891Z,101029.95
2018-10-07T06:03:02.251Z,101029.61
2018-10-07T06:05:30.493Z,101040.25
2018-10-07T06:07:58.746Z,101046.01
2018-10-07T06:10:26.944Z,101054.34
2018-10-07T06:12:55.143Z,101060.98
2018-10-07T06:15:31.295Z,101068.63
2018-10-07T06:17:59.763Z,101081.72
2018-10-07T06:20:28.646Z,101085.56
2018-10-07T06:22:57.196Z,101091.58
2018-10-07T06:25:25.524Z,101096.27
2018-10-07T06:27:54.008Z,101103.33
2018-10-07T06:30:22.228Z,101105.52
2018-10-07T06:32:50.636Z,101113.22
2018-10-07T06:35:18.840Z,101119.23
2018-10-07T06:37:47.111Z,101123.56
2018-10-07T06:40:15.255Z,101128.05
2018-10-07T06:42:43.528Z,101139.83
2018-10-07T06:45:11.727Z,101147.37
2018-10-07T06:47:40.114Z,101156.97
2018-10-07T06:50:08.337Z,101162.22
2018-10-07T06:52:36.508Z,101167.44
2018-10-07T06:55:04.657Z,101173.74
2018-10-07T06:57:32.860Z,101171.81
2018-10-07T07:00:01.192Z,101174.44
2018-10-07T07:02:29.551Z,101178.08
2018-10-07T07:04:57.731Z,101189.28
2018-10-07T07:07:26.316Z,101198.06
2018-10-07T07:09:54.845Z,101195.76
2018-10-07T07:12:23.190Z,101206.22
2018-10-07T07:14:51.420Z,101211.95
2018-10-07T07:17:19.598Z,101225.54
2018-10-07T07:19:47.996Z,101226.09
2018-10-07T07:22:16.172Z,101236.55
2018-10-07T07:24:44.363Z,101236.80
2018-10-07T07:27:12.547Z,101249.88
2018-10-07T07:29:41.292Z,101258.21
2018-10-07T07:32:09.471Z,101259.89
2018-10-07T07:34:37.611Z,101268.58
2018-10-07T07:37:05.904Z,101276.69
2018-10-07T07:39:34.122Z,101281.80
2018-10-07T07:42:02.310Z,101288.02
2018-10-07T07:44:30.493Z,101292.35
2018-10-07T07:46:58.691Z,101298.43
2018-10-07T07:49:26.942Z,101310.26
2018-10-07T07:51:55.159Z,101304.10
2018-10-07T07:54:23.354Z,101310.92
2018-10-07T07:56:51.512Z,101301.61
2018-10-07T07:59:19.696Z,101309.98
2018-10-07T08:01:47.863Z,101303.42
2018-10-07T08:04:16.051Z,101322.36
2018-10-07T08:06:44.267Z,101329.55
2018-10-07T08:09:12.478Z,101336.19
2018-10-07T08:11:40.790Z,101337.98
2018-10-07T08:14:09.020Z,101339.59
2018-10-07T08:16:37.267Z,101347.22
2018-10-07T08:19:05.500Z,101350.63
2018-10-07T08:21:33.642Z,101348.52
2018-10-07T08:24:01.863Z,101355.37
2018-10-07T08:26:30.138Z,101358.78
2018-10-07T08:28:58.327Z,101354.58
2018-10-07T08:31:26.490Z,101361.66
2018-10-07T08:33:54.683Z,101359.00
2018-10-07T08:36:22.883Z,101363.47
2018-10-07T08:38:51.155Z,101361.92
2018-10-07T08:41:19.527Z,101362.41
2018-10-07T08:43:47.768Z,101361.78
2018-10-07T08:46:16.175Z,101360.81
2018-10-07T08:48:45.193Z,101365.83
2018-10-07T08:51:14.289Z,101366.53
2018-10-07T08:53:42.696Z,101371.45
2018-10-07T08:56:11.157Z,101374.69
2018-10-07T08:58:39.330Z,101382.04
2018-10-07T09:01:07.539Z,101386.03
2018-10-07T09:03:36.204Z,101389.04
2018-10-07T09:06:04.436Z,101391.53
2018-10-07T09:08:32.877Z,101392.73
2018-10-07T09:11:01.119Z,101399.73
2018-10-07T09:13:29.337Z,101393.79
2018-10-07T09:15:57.484Z,101400.17
2018-10-07T09:18:25.705Z,101385.77
2018-10-07T09:20:54.001Z,101385.63
2018-10-07T09:23:22.142Z,101374.86
2018-10-07T09:25:50.329Z,101382.35
2018-10-07T09:28:18.508Z,101381.42
2018-10-07T09:30:46.671Z,101385.42
2018-10-07T09:33:14.863Z,101386.48
2018-10-07T09:35:43.054Z,101390.33
2018-10-07T09:38:11.216Z,101384.52
2018-10-07T09:40:39.383Z,101390.33
2018-10-07T09:43:07.551Z,101394.81
2018-10-07T09:45:35.754Z,101405.45
2018-10-07T09:48:03.975Z,101413.42
2018-10-07T09:50:32.135Z,101414.97
2018-10-07T09:53:00.351Z,101419.80
2018-10-07T09:55:28.674Z,101417.94
2018-10-07T09:57:57.324Z,101424.05
2018-10-07T10:00:40.842Z,101420.98
2018-10-07T10:03:10.323Z,101424.48
2018-10-07T10:05:38.535Z,101420.49
2018-10-07T10:08:06.890Z,101426.22
2018-10-07T10:10:35.083Z,101425.32
2018-10-07T10:13:03.394Z,101425.45
2018-10-07T10:15:31.583Z,101427.91
2018-10-07T10:18:02.288Z,101436.03
2018-10-07T10:20:36.931Z,101437.78
2018-10-07T10:23:11.928Z,101438.98
2018-10-07T10:25:58.124Z,101433.52
2018-10-07T10:29:08.559Z,101432.19
2018-10-07T10:32:15.087Z,101432.67
2018-10-07T10:34:54.953Z,101428.90
2018-10-07T10:37:29.778Z,101434.30
2018-10-07T10:39:59.949Z,101433.22
2018-10-07T10:43:37.185Z,101429.30
2018-10-07T10:46:22.663Z,101437.99
2018-10-07T10:49:03.895Z,101432.64
2018-10-07T10:53:47.547Z,101436.05
2018-10-07T10:56:19.464Z,101430.53
2018-10-07T10:59:12.539Z,101437.81
2018-10-07T11:03:00.571Z,101433.71
2018-10-07T11:05:32.419Z,101437.20
2018-10-07T11:10:14.169Z,101438.34
2018-10-07T11:12:57.576Z,101443.55
2018-10-07T11:15:29.748Z,101441.69
2018-10-07T11:18:04.840Z,101446.13
2018-10-07T11:20:49.339Z,101456.95
2018-10-07T11:23:41.084Z,101460.91
2018-10-07T11:26:19.147Z,101452.31
2018-10-07T11:29:08.658Z,101453.91
2018-10-07T11:32:05.142Z,101450.31
2018-10-07T11:34:42.091Z,101453.39
2018-10-07T11:37:25.695Z,101457.13
2018-10-07T11:40:08.650Z,101457.47
2018-10-07T11:43:12.512Z,101453.80
2018-10-07T11:45:44.631Z,101452.48
2018-10-07T11:48:23.985Z,101451.99
2018-10-07T11:51:01.865Z,101444.41
2018-10-07T11:53:52.491Z,101452.71
2018-10-07T11:56:21.920Z,101441.27
2018-10-07T11:58:50.079Z,101439.18
2018-10-07T12:01:18.239Z,101438.23
2018-10-07T12:03:46.442Z,101444.80
2018-10-07T12:06:14.595Z,101450.77
2018-10-07T12:08:42.747Z,101442.88
2018-10-07T12:11:10.931Z,101453.17
2018-10-07T12:13:39.153Z,101446.78
2018-10-07T12:16:07.781Z,101452.38
2018-10-07T12:18:35.930Z,101455.67
2018-10-07T12:21:04.123Z,101463.84
2018-10-07T12:23:32.286Z,101465.02
2018-10-07T12:26:00.528Z,101460.97
2018-10-07T12:28:28.722Z,101465.66
2018-10-07T12:30:56.911Z,101461.52
2018-10-07T12:33:25.142Z,101458.70
2018-10-07T12:35:53.372Z,101458.20
2018-10-07T12:38:21.619Z,101463.73
2018-10-07T12:40:49.892Z,101456.70
2018-10-07T12:43:18.130Z,101456.63
2018-10-07T12:45:46.300Z,101461.11
2018-10-07T12:48:14.512Z,101461.03
2018-10-07T12:50:42.840Z,101453.91
2018-10-07T12:53:11.211Z,101451.03
2018-10-07T12:55:39.550Z,101456.58
2018-10-07T12:58:07.731Z,101456.18
2018-10-07T13:00:35.888Z,101460.85
2018-10-07T13:03:04.226Z,101461.88
2018-10-07T13:05:32.423Z,101463.55
2018-10-07T13:08:00.619Z,101454.48
2018-10-07T13:10:28.799Z,101456.72
2018-10-07T13:12:56.963Z,101449.59
2018-10-07T13:15:25.190Z,101448.47
2018-10-07T13:17:53.411Z,101446.89
2018-10-07T13:20:21.582Z,101449.30
2018-10-07T13:22:50.044Z,101456.23
2018-10-07T13:25:18.214Z,101456.17
2018-10-07T13:27:46.491Z,101469.13
2018-10-07T13:30:14.727Z,101464.89
2018-10-07T13:32:42.971Z,101468.73
2018-10-07T13:35:11.508Z,101468.89
2018-10-07T13:37:46.671Z,101465.43
2018-10-07T13:40:14.926Z,101470.13
2018-10-07T13:42:43.154Z,101472.11
2018-10-07T13:45:11.347Z,101469.09
2018-10-07T13:47:39.539Z,101474.58
2018-10-07T13:50:07.710Z,101472.73
2018-10-07T13:52:35.955Z,101474.22
2018-10-07T13:55:04.454Z,101479.86
2018-10-07T13:57:32.627Z,101476.15
2018-10-07T14:00:00.915Z,101476.45
2018-10-07T14:02:29.122Z,101477.98
2018-10-07T14:04:57.311Z,101474.17
2018-10-07T14:07:25.515Z,101470.52
2018-10-07T14:09:53.675Z,101474.66
2018-10-07T14:12:21.862Z,101477.38
2018-10-07T14:14:50.047Z,101478.08
2018-10-07T14:17:18.260Z,101478.14
2018-10-07T14:19:46.491Z,101486.75
2018-10-07T14:22:14.704Z,101490.50
2018-10-07T14:24:42.895Z,101488.37
2018-10-07T14:27:11.184Z,101489.22
2018-10-07T14:29:39.355Z,101487.38
2018-10-07T14:32:07.583Z,101482.73
2018-10-07T14:34:35.890Z,101480.10
2018-10-07T14:37:04.366Z,101481.48
2018-10-07T14:39:32.519Z,101480.94
2018-10-07T14:42:00.748Z,101476.40
2018-10-07T14:44:28.946Z,101475.66
2018-10-07T14:46:57.243Z,101478.33
2018-10-07T14:49:25.451Z,101487.63
2018-10-07T14:51:53.615Z,101488.77
2018-10-07T14:54:21.838Z,101484.92
2018-10-07T14:56:50.030Z,101482.59
2018-10-07T14:59:18.215Z,101486.94
2018-10-07T15:01:46.410Z,101491.44
2018-10-07T15:04:14.631Z,101491.58
2018-10-07T15:06:42.786Z,101493.22
2018-10-07T15:09:11.961Z,101490.84
2018-10-07T15:11:40.231Z,101493.96
2018-10-07T15:14:08.760Z,101492.41
2018-10-07T15:16:36.955Z,101494.00
2018-10-07T15:19:05.227Z,101487.95
2018-10-07T15:21:33.488Z,101495.55
2018-10-07T15:24:01.722Z,101495.16
2018-10-07T15:26:29.974Z,101494.09
2018-10-07T15:28:58.171Z,101495.38
2018-10-07T15:31:26.471Z,101490.30
2018-10-07T15:33:54.755Z,101498.09
2018-10-07T15:36:23.243Z,101498.59
2018-10-07T15:38:51.364Z,101500.42
2018-10-07T15:41:19.566Z,101503.93
2018-10-07T15:43:47.726Z,101510.25
2018-10-07T15:46:16.003Z,101507.30
2018-10-07T15:48:44.266Z,101510.69
2018-10-07T15:51:12.506Z,101510.69
2018-10-07T15:53:40.783Z,101512.38
2018-10-07T15:56:09.055Z,101510.20
2018-10-07T15:58:37.318Z,101520.58
2018-10-07T16:01:05.514Z,101513.06
2018-10-07T16:03:33.698Z,101518.05
2018-10-07T16:06:02.032Z,101513.36
2018-10-07T16:08:30.181Z,101517.47
2018-10-07T16:10:58.383Z,101519.94
2018-10-07T16:13:26.744Z,101520.58
2018-10-07T16:15:54.917Z,101521.89
2018-10-07T16:18:23.122Z,101527.16
2018-10-07T16:20:51.233Z,101525.13
2018-10-07T16:23:19.479Z,101526.75
2018-10-07T16:25:47.651Z,101533.39
2018-10-07T16:28:15.819Z,101534.31
2018-10-07T16:30:44.057Z,101541.55
2018-10-07T16:33:12.211Z,101541.31
2018-10-07T16:35:40.454Z,101545.88
2018-10-07T16:38:08.631Z,101546.97
2018-10-07T16:40:36.794Z,101558.06
2018-10-07T16:43:05.008Z,101557.78
2018-10-07T16:45:33.212Z,101560.90
2018-10-07T16:48:01.417Z,101560.62
2018-10-07T16:50:29.743Z,101562.16
2018-10-07T16:52:57.926Z,101572.07
2018-10-07T16:55:26.087Z,101569.61
2018-10-07T16:57:54.495Z,101576.81
2018-10-07T17:00:22.686Z,101570.08
2018-10-07T17:02:50.847Z,101571.69
2018-10-07T17:05:19.031Z,101570.27
2018-10-07T17:07:47.204Z,101575.91
2018-10-07T17:10:15.415Z,101580.80
2018-10-07T17:12:43.652Z,101576.86
2018-10-07T17:15:11.885Z,101583.95
2018-10-07T17:17:40.092Z,101588.84
2018-10-07T17:20:08.310Z,101594.08
2018-10-07T17:22:36.497Z,101595.50
2018-10-07T17:25:04.881Z,101596.25
2018-10-07T17:27:33.170Z,101596.16
2018-10-07T17:30:01.389Z,101601.56
2018-10-07T17:32:29.596Z,101605.95
2018-10-07T17:34:57.807Z,101610.48
2018-10-07T17:37:26.087Z,101612.78
2018-10-07T17:39:54.249Z,101605.36
2018-10-07T17:42:22.395Z,101609.52
2018-10-07T17:44:50.599Z,101604.76
2018-10-07T17:47:18.801Z,101606.61
2018-10-07T17:49:47.019Z,101611.12
2018-10-07T17:52:15.213Z,101618.28
2018-10-07T17:54:43.386Z,101618.09
2018-10-07T17:57:11.558Z,101623.17
2018-10-07T17:59:39.770Z,101628.91
2018-10-07T18:02:08.335Z,101635.45
2018-10-07T18:04:36.546Z,101633.19
2018-10-07T18:07:04.697Z,101636.25
2018-10-07T18:09:32.914Z,101639.78
2018-10-07T18:12:01.108Z,101646.67
2018-10-07T18:14:29.270Z,101641.74
2018-10-07T18:16:57.442Z,101645.89
2018-10-07T18:19:25.608Z,101649.03
2018-10-07T18:21:53.832Z,101652.42
2018-10-07T18:24:22.019Z,101659.19
2018-10-07T18:26:50.235Z,101667.90
2018-10-07T18:29:18.423Z,101669.47
2018-10-07T18:31:46.601Z,101659.94
2018-10-07T18:34:14.850Z,101668.19
2018-10-07T18:36:43.055Z,101666.14
2018-10-07T18:39:11.262Z,101671.58
2018-10-07T18:41:40.139Z,101666.03
2018-10-07T18:44:08.623Z,101670.39
2018-10-07T18:46:36.788Z,101676.67
2018-10-07T18:49:05.275Z,101679.24
2018-10-07T18:51:33.434Z,101677.20
2018-10-07T18:54:01.595Z,101674.78
2018-10-07T18:56:29.778Z,101678.05
2018-10-07T18:58:57.956Z,101678.93
2018-10-07T19:01:26.194Z,101687.14
2018-10-07T19:03:54.338Z,101692.20
2018-10-07T19:06:22.539Z,101692.45
2018-10-07T19:08:50.824Z,101702.59
2018-10-07T19:11:18.995Z,101708.63
2018-10-07T19:13:47.215Z,101706.69
2018-10-07T19:16:15.460Z,101705.13
2018-10-07T19:18:43.694Z,101700.50
2018-10-07T19:21:11.888Z,101701.83
2018-10-07T19:23:40.084Z,101707.14
2018-10-07T19:26:08.315Z,101698.97
2018-10-07T19:28:36.547Z,101697.41
2018-10-07T19:31:04.718Z,101689.44
2018-10-07T19:33:32.874Z,101691.97
2018-10-07T19:36:01.056Z,101696.83
2018-10-07T19:38:29.244Z,101703.34
2018-10-07T19:40:57.409Z,101701.02
2018-10-07T19:43:25.624Z,101698.75
2018-10-07T19:45:54.181Z,101700.44
2018-10-07T19:48:22.326Z,101695.38
2018-10-07T19:50:50.806Z,101702.13
2018-10-07T19:53:19.011Z,101695.25
2018-10-07T19:55:47.168Z,101696.84
2018-10-07T19:58:15.350Z,101691.30
2018-10-07T20:00:43.599Z,101695.98
2018-10-07T20:03:11.851Z,101698.03
2018-10-07T20:05:40.214Z,101701.89
2018-10-07T20:08:08.391Z,101697.93
2018-10-07T20:10:36.531Z,101698.64
2018-10-07T20:13:04.726Z,101698.99
2018-10-07T20:15:32.890Z,101701.55
2018-10-07T20:18:01.854Z,101706.84
2018-10-07T20:20:29.995Z,101708.88
2018-10-07T20:22:58.187Z,101706.82
2018-10-07T20:25:26.351Z,101696.11
2018-10-07T20:27:54.534Z,101698.99
2018-10-07T20:30:22.742Z,101696.09
2018-10-07T20:32:50.899Z,101691.87
2018-10-07T20:35:19.076Z,101694.16
2018-10-07T20:37:47.277Z,101694.75
2018-10-07T20:40:15.469Z,101696.93
2018-10-07T20:42:43.595Z,101698.12
2018-10-07T20:45:11.746Z,101696.66
2018-10-07T20:47:39.959Z,101699.68
2018-10-07T20:50:08.212Z,101694.13
2018-10-07T20:52:36.453Z,101697.00
2018-10-07T20:55:04.579Z,101695.54
2018-10-07T20:57:32.726Z,101696.12
2018-10-07T21:00:00.899Z,101695.41
2018-10-07T21:02:29.204Z,101693.38
2018-10-07T21:04:57.314Z,101694.45
2018-10-07T21:07:25.451Z,101690.11
2018-10-07T21:09:53.611Z,101681.90
2018-10-07T21:12:21.830Z,101694.42
2018-10-07T21:14:50.024Z,101690.19
2018-10-07T21:17:18.244Z,101692.47
2018-10-07T21:19:46.534Z,101689.94
2018-10-07T21:22:21.012Z,101692.36
2018-10-07T21:24:49.207Z,101694.16
2018-10-07T21:27:17.335Z,101693.91
2018-10-07T21:29:45.625Z,101697.87
2018-10-07T21:32:13.728Z,101694.50
2018-10-07T21:34:41.915Z,101694.50
2018-10-07T21:37:10.135Z,101701.13
2018-10-07T21:39:38.316Z,101700.75
2018-10-07T21:42:06.506Z,101699.55
2018-10-07T21:44:34.700Z,101701.34
2018-10-07T21:47:02.903Z,101698.92
2018-10-07T21:49:31.099Z,101697.81
2018-10-07T21:51:59.285Z,101690.09
2018-10-07T21:54:27.436Z,101695.02
2018-10-07T21:56:55.614Z,101695.39
2018-10-07T21:59:23.759Z,101689.39
2018-10-07T22:01:51.983Z,101691.22
2018-10-07T22:04:20.146Z,101686.18
2018-10-07T22:06:48.426Z,101685.08
2018-10-07T22:09:16.624Z,101688.09
2018-10-07T22:11:44.747Z,101687.84
2018-10-07T22:14:12.975Z,101689.28
2018-10-07T22:16:41.163Z,101691.56
2018-10-07T22:19:09.387Z,101692.04
2018-10-07T22:21:37.579Z,101691.30
2018-10-07T22:24:06.506Z,101698.88
2018-10-07T22:26:34.697Z,101701.16
2018-10-07T22:29:02.842Z,101701.42
2018-10-07T22:31:30.978Z,101693.84
2018-10-07T22:33:59.143Z,101698.55
2018-10-07T22:36:27.310Z,101699.03
2018-10-07T22:38:55.470Z,101691.45
2018-10-07T22:41:23.748Z,101688.06
2018-10-07T22:43:51.983Z,101687.08
2018-10-07T22:46:20.553Z,101687.19
2018-10-07T22:48:48.771Z,101683.06
2018-10-07T22:51:17.011Z,101687.84
2018-10-07T22:53:45.227Z,101690.48
2018-10-07T22:56:13.442Z,101684.20
2018-10-07T22:58:41.611Z,101683.35
2018-10-07T23:01:09.763Z,101685.52
2018-10-07T23:03:38.013Z,101686.11
2018-10-07T23:06:06.226Z,101682.36
2018-10-07T23:08:34.423Z,101690.55
2018-10-07T23:11:02.660Z,101691.39
2018-10-07T23:13:30.774Z,101697.53
2018-10-07T23:15:59.090Z,101697.39
2018-10-07T23:18:27.295Z,101697.66
2018-10-07T23:20:55.478Z,101704.16
2018-10-07T23:23:23.684Z,101708.39
2018-10-07T23:25:51.838Z,101706.70
2018-10-07T23:28:20.000Z,101701.14
2018-10-07T23:30:48.253Z,101691.98
2018-10-07T23:33:16.509Z,101701.14
2018-10-07T23:35:44.651Z,101705.33
2018-10-07T23:38:12.860Z,101701.68
2018-10-07T23:40:42.338Z,101699.49
2018-10-07T23:43:10.536Z,101705.00
2018-10-07T23:45:38.832Z,101701.62
2018-10-07T23:48:06.955Z,101704.22
2018-10-07T23:50:35.127Z,101707.92
2018-10-07T23:53:03.364Z,101709.86
2018-10-07T23:55:31.552Z,101709.38
2018-10-07T23:57:59.977Z,101709.14
